createdAt,value
2019-02-11T00:01:02.026Z,5.60
2019-02-11T00:03:31.892Z,5.60
2019-02-11T00:06:02.223Z,5.60
2019-02-11T00:08:32.329Z,5.60
2019-02-11T00:11:21.777Z,5.60
2019-02-11T00:14:11.372Z,5.50
2019-02-11T00:16:41.592Z,5.40
2019-02-11T00:19:11.670Z,5.40
2019-02-11T00:21:41.769Z,5.30
2019-02-11T00:24:31.468Z,5.30
2019-02-11T00:27:21.162Z,5.30
2019-02-11T00:30:10.771Z,5.20
2019-02-11T00:32:40.582Z,5.20
2019-02-11T00:35:29.998Z,5.20
2019-02-11T00:38:19.467Z,5.10
2019-02-11T00:41:09.255Z,5.10
2019-02-11T00:43:58.798Z,5.10
2019-02-11T00:46:48.431Z,5.10
2019-02-11T00:49:18.445Z,5.10
2019-02-11T00:52:08.397Z,5.00
2019-02-11T00:54:57.787Z,5.00
2019-02-11T00:57:27.995Z,5.00
2019-02-11T00:59:57.874Z,5.00
2019-02-11T01:02:28.140Z,4.90
2019-02-11T01:04:58.193Z,5.00
2019-02-11T01:07:28.184Z,4.90
2019-02-11T01:09:58.156Z,5.00
2019-02-11T01:12:28.142Z,4.90
2019-02-11T01:14:58.712Z,5.00
2019-02-11T01:17:48.382Z,5.00
2019-02-11T01:20:37.689Z,5.00
2019-02-11T01:23:07.531Z,5.00
2019-02-11T01:25:37.396Z,5.00
2019-02-11T01:28:07.449Z,5.00
2019-02-11T01:30:57.109Z,5.00
2019-02-11T01:33:26.916Z,5.00
2019-02-11T01:36:16.490Z,5.00
2019-02-11T01:39:05.870Z,5.00
2019-02-11T01:41:35.816Z,5.00
2019-02-11T01:44:25.537Z,5.00
2019-02-11T01:46:57.168Z,5.10
2019-02-11T01:49:27.200Z,5.10
2019-02-11T01:51:57.555Z,5.10
2019-02-11T01:54:27.496Z,5.10
2019-02-11T01:57:16.878Z,5.20
2019-02-11T01:59:47.380Z,5.20
2019-02-11T02:02:36.888Z,5.20
2019-02-11T02:05:06.986Z,5.20
2019-02-11T02:07:56.466Z,5.20
2019-02-11T02:10:45.952Z,5.30
2019-02-11T02:13:35.478Z,5.30
2019-02-11T02:16:05.419Z,5.30
2019-02-11T02:18:54.819Z,5.30
2019-02-11T02:21:44.480Z,5.30
2019-02-11T02:24:34.204Z,5.20
2019-02-11T02:27:23.944Z,5.20
2019-02-11T02:30:34.683Z,5.30
2019-02-11T02:33:24.228Z,5.30
2019-02-11T02:35:54.087Z,5.30
2019-02-11T02:38:43.439Z,5.30
2019-02-11T02:41:13.352Z,5.30
2019-02-11T02:44:02.753Z,5.30
2019-02-11T02:46:52.532Z,5.30
2019-02-11T02:49:42.062Z,5.30
2019-02-11T02:52:11.986Z,5.30
2019-02-11T02:55:01.901Z,5.30
2019-02-11T02:57:51.606Z,5.30
2019-02-11T03:00:40.968Z,5.30
2019-02-11T03:03:30.483Z,5.30
2019-02-11T03:06:20.114Z,5.20
2019-02-11T03:09:09.800Z,5.20
2019-02-11T03:11:59.178Z,5.20
2019-02-11T03:14:29.259Z,5.10
2019-02-11T03:16:59.314Z,5.00
2019-02-11T03:19:29.195Z,5.00
2019-02-11T03:21:59.075Z,4.90
2019-02-11T03:24:48.854Z,4.90
2019-02-11T03:27:18.787Z,4.90
2019-02-11T03:30:08.569Z,4.80
2019-02-11T03:32:58.017Z,4.60
2019-02-11T03:35:27.903Z,4.30
2019-02-11T03:38:19.026Z,4.10
2019-02-11T03:40:48.922Z,4.00
2019-02-11T03:43:38.355Z,3.90
2019-02-11T03:46:08.240Z,4.00
2019-02-11T03:48:57.773Z,4.00
2019-02-11T03:51:27.785Z,4.10
2019-02-11T03:53:58.003Z,4.10
2019-02-11T03:56:28.048Z,4.10
2019-02-11T03:59:10.297Z,4.10
2019-02-11T04:01:59.851Z,4.10
2019-02-11T04:04:29.747Z,4.10
2019-02-11T04:06:59.616Z,4.10
2019-02-11T04:09:29.536Z,4.10
2019-02-11T04:11:59.370Z,4.10
2019-02-11T04:14:29.360Z,4.00
2019-02-11T04:16:59.336Z,3.90
2019-02-11T04:19:48.695Z,3.90
2019-02-11T04:22:18.606Z,3.90
2019-02-11T04:24:48.461Z,3.90
2019-02-11T04:27:18.350Z,3.90
2019-02-11T04:29:48.248Z,3.90
2019-02-11T04:32:18.264Z,3.90
2019-02-11T04:34:48.195Z,3.90
2019-02-11T04:37:37.487Z,3.90
2019-02-11T04:40:09.083Z,3.90
2019-02-11T04:42:39.018Z,4.00
2019-02-11T04:45:28.448Z,4.00
2019-02-11T04:48:17.722Z,4.10
2019-02-11T04:51:17.972Z,4.20
2019-02-11T04:53:47.784Z,4.20
2019-02-11T04:56:37.092Z,4.20
2019-02-11T04:59:19.296Z,4.30
2019-02-11T05:02:09.083Z,4.30
2019-02-11T05:04:39.173Z,4.30
2019-02-11T05:07:09.131Z,4.30
2019-02-11T05:09:58.456Z,4.40
2019-02-11T05:12:47.785Z,4.40
2019-02-11T05:15:37.069Z,4.40
2019-02-11T05:21:21.905Z,4.30
2019-02-11T05:24:11.604Z,4.30
2019-02-11T05:27:01.187Z,4.30
2019-02-11T05:29:31.054Z,4.20
2019-02-11T05:32:00.893Z,4.20
2019-02-11T05:34:30.672Z,4.30
2019-02-11T05:37:00.682Z,4.30
2019-02-11T05:39:30.551Z,4.20
2019-02-11T05:42:20.057Z,4.20
2019-02-11T05:45:09.759Z,4.20
2019-02-11T05:47:59.154Z,4.20
2019-02-11T05:50:29.201Z,4.20
2019-02-11T05:53:18.771Z,4.20
2019-02-11T05:56:08.602Z,4.30
2019-02-11T05:58:58.023Z,4.30
2019-02-11T06:01:40.284Z,4.40
2019-02-11T06:04:29.656Z,4.40
2019-02-11T06:07:00.340Z,4.40
2019-02-11T06:09:49.782Z,4.50
2019-02-11T06:12:19.577Z,4.50
2019-02-11T06:14:49.519Z,4.50
2019-02-11T06:17:39.679Z,4.50
2019-02-11T06:20:09.597Z,4.60
2019-02-11T06:22:59.194Z,4.60
2019-02-11T06:25:48.659Z,4.60
2019-02-11T06:28:38.142Z,4.60
2019-02-11T06:31:27.922Z,4.70
2019-02-11T06:33:58.124Z,4.60
2019-02-11T06:36:28.340Z,4.70
2019-02-11T06:39:18.125Z,4.80
2019-02-11T06:44:55.917Z,4.70
2019-02-11T06:47:26.863Z,4.70
2019-02-11T06:49:57.069Z,4.80
2019-02-11T06:52:27.919Z,4.80
2019-02-11T06:55:17.634Z,4.80
2019-02-11T06:58:07.163Z,4.70
2019-02-11T07:00:50.093Z,4.70
2019-02-11T07:03:20.259Z,4.70
2019-02-11T07:05:50.342Z,4.60
2019-02-11T07:08:39.788Z,4.60
2019-02-11T07:11:29.881Z,4.60
2019-02-11T07:16:55.294Z,4.50
2019-02-11T07:19:45.052Z,4.40
2019-02-11T07:22:34.622Z,4.40
2019-02-11T07:25:05.258Z,4.40
2019-02-11T07:27:35.359Z,4.30
2019-02-11T07:30:25.141Z,4.40
2019-02-11T07:33:14.423Z,4.30
2019-02-11T07:36:04.417Z,4.40
2019-02-11T07:38:53.767Z,4.40
2019-02-11T07:42:04.687Z,4.50
2019-02-11T07:45:01.499Z,4.50
2019-02-11T07:47:51.220Z,4.60
2019-02-11T07:50:21.576Z,4.60
2019-02-11T07:52:51.537Z,4.70
2019-02-11T07:55:21.530Z,4.60
2019-02-11T07:58:10.971Z,4.60
2019-02-11T08:00:53.978Z,4.70
2019-02-11T08:03:23.998Z,4.60
2019-02-11T08:05:54.033Z,4.60
2019-02-11T08:08:45.782Z,4.60
2019-02-11T08:11:15.793Z,4.70
2019-02-11T08:13:45.938Z,4.70
2019-02-11T08:16:15.978Z,4.80
2019-02-11T08:18:46.123Z,4.80
2019-02-11T08:21:16.227Z,4.80
2019-02-11T08:24:05.746Z,4.90
2019-02-11T08:26:55.141Z,4.80
2019-02-11T08:29:25.045Z,4.90
2019-02-11T08:31:55.108Z,4.90
2019-02-11T08:34:44.480Z,4.90
2019-02-11T08:37:34.143Z,4.90
2019-02-11T08:40:04.551Z,4.90
2019-02-11T08:42:54.151Z,4.90
2019-02-11T08:45:24.565Z,5.10
2019-02-11T08:48:14.071Z,5.00
2019-02-11T08:51:03.465Z,5.00
2019-02-11T08:53:53.065Z,5.00
2019-02-11T08:56:42.395Z,5.10
2019-02-11T08:59:26.380Z,5.10
2019-02-11T09:02:15.874Z,5.10
2019-02-11T09:05:05.750Z,5.10
2019-02-11T09:07:55.208Z,5.10
2019-02-11T09:10:25.519Z,5.20
2019-02-11T09:13:14.905Z,5.20
2019-02-11T09:16:04.419Z,5.20
2019-02-11T09:18:53.990Z,5.10
2019-02-11T09:21:43.749Z,5.20
2019-02-11T09:24:34.851Z,5.30
2019-02-11T09:27:23.455Z,5.30
2019-02-11T09:29:53.655Z,5.40
2019-02-11T09:32:43.112Z,5.30
2019-02-11T09:35:13.384Z,5.40
2019-02-11T09:38:03.128Z,5.50
2019-02-11T09:40:33.118Z,5.30
2019-02-11T09:43:22.900Z,5.40
2019-02-11T09:46:12.256Z,5.40
2019-02-11T09:49:01.632Z,5.50
2019-02-11T09:51:51.037Z,5.50
2019-02-11T09:54:40.701Z,5.50
2019-02-11T09:57:30.169Z,5.60
2019-02-11T10:00:01.120Z,5.60
2019-02-11T10:02:50.578Z,5.60
2019-02-11T10:05:20.601Z,5.80
2019-02-11T10:08:10.018Z,5.70
2019-02-11T10:10:39.867Z,5.80
2019-02-11T10:13:09.708Z,5.70
2019-02-11T10:15:39.599Z,5.70
2019-02-11T10:18:09.623Z,5.90
2019-02-11T10:20:39.622Z,5.90
2019-02-11T10:23:09.612Z,6.00
2019-02-11T10:25:39.689Z,6.10
2019-02-11T10:28:11.885Z,6.00
2019-02-11T10:30:41.893Z,6.00
2019-02-11T10:33:32.646Z,5.90
2019-02-11T10:36:22.281Z,5.90
2019-02-11T10:38:52.523Z,6.10
2019-02-11T10:41:22.715Z,6.00
2019-02-11T10:44:12.358Z,5.90
2019-02-11T10:46:42.331Z,5.80
2019-02-11T10:49:32.201Z,6.00
2019-02-11T10:52:21.611Z,6.00
2019-02-11T10:55:33.686Z,5.90
2019-02-11T10:58:23.231Z,5.80
2019-02-11T11:01:06.294Z,6.00
2019-02-11T11:03:55.979Z,6.00
2019-02-11T11:06:45.480Z,6.00
2019-02-11T11:09:34.847Z,6.00
2019-02-11T11:12:24.328Z,6.00
2019-02-11T11:15:13.802Z,6.00
2019-02-11T11:18:24.704Z,6.10
2019-02-11T11:21:14.473Z,6.00
2019-02-11T11:23:44.413Z,5.90
2019-02-11T11:26:34.286Z,6.00
2019-02-11T11:29:24.151Z,6.10
2019-02-11T11:32:14.162Z,6.20
2019-02-11T11:34:44.277Z,6.20
2019-02-11T11:37:33.586Z,6.10
2019-02-11T11:43:20.144Z,6.00
2019-02-11T11:46:09.590Z,6.00
2019-02-11T11:48:59.234Z,5.90
2019-02-11T11:51:29.209Z,6.00
2019-02-11T11:53:59.292Z,6.00
2019-02-11T11:56:29.369Z,6.00
2019-02-11T11:59:18.709Z,6.00
2019-02-11T12:02:02.181Z,6.00
2019-02-11T12:04:51.647Z,6.00
2019-02-11T12:07:41.105Z,6.10
2019-02-11T12:10:30.888Z,6.00
2019-02-11T12:13:00.938Z,5.90
2019-02-11T12:15:50.684Z,6.00
2019-02-11T12:18:40.470Z,5.80
2019-02-11T12:21:30.950Z,6.00
2019-02-11T12:24:00.910Z,6.10
2019-02-11T12:26:50.376Z,6.20
2019-02-11T12:29:20.341Z,6.20
2019-02-11T12:32:09.993Z,6.20
2019-02-11T12:34:39.920Z,6.30
2019-02-11T12:37:29.845Z,6.10
2019-02-11T12:40:19.538Z,6.10
2019-02-11T12:43:09.085Z,6.30
2019-02-11T12:45:58.506Z,6.10
2019-02-11T12:48:47.949Z,6.00
2019-02-11T12:51:18.058Z,5.90
2019-02-11T12:53:48.026Z,6.10
2019-02-11T12:56:17.882Z,6.00
2019-02-11T12:58:47.727Z,6.10
2019-02-11T13:01:17.844Z,6.10
2019-02-11T13:04:07.405Z,6.00
2019-02-11T13:06:57.369Z,6.00
2019-02-11T13:09:27.430Z,6.00
2019-02-11T13:12:17.130Z,6.00
2019-02-11T13:14:48.199Z,5.90
2019-02-11T13:17:32.820Z,5.90
2019-02-11T13:20:12.072Z,5.90
2019-02-11T13:22:45.299Z,6.00
2019-02-11T13:25:15.389Z,6.10
2019-02-11T13:28:05.521Z,6.00
2019-02-11T13:30:35.420Z,6.00
2019-02-11T13:33:05.333Z,6.10
2019-02-11T13:35:54.805Z,6.10
2019-02-11T13:38:44.137Z,6.00
2019-02-11T13:41:34.313Z,6.10
2019-02-11T13:44:24.006Z,6.20
2019-02-11T13:46:53.868Z,6.30
2019-02-11T13:49:24.266Z,6.10
2019-02-11T13:52:13.721Z,6.10
2019-02-11T13:55:03.351Z,6.00
2019-02-11T13:57:53.024Z,6.10
2019-02-11T14:00:36.344Z,6.20
2019-02-11T14:03:26.246Z,6.40
2019-02-11T14:08:45.973Z,6.30
2019-02-11T14:14:28.671Z,6.10
2019-02-11T14:16:58.646Z,6.20
2019-02-11T14:19:48.022Z,6.30
2019-02-11T14:22:17.972Z,6.10
2019-02-11T14:25:07.561Z,6.20
2019-02-11T14:27:37.644Z,6.30
2019-02-11T14:30:27.053Z,6.30
2019-02-11T14:32:56.892Z,6.30
2019-02-11T14:35:27.091Z,6.60
2019-02-11T14:37:57.041Z,6.70
2019-02-11T14:40:27.107Z,6.50
2019-02-11T14:42:57.170Z,6.60
2019-02-11T14:45:27.218Z,6.70
2019-02-11T14:47:57.618Z,6.90
2019-02-11T14:50:27.803Z,6.80
2019-02-11T14:53:17.632Z,6.70
2019-02-11T14:56:07.138Z,6.70
2019-02-11T14:58:37.006Z,6.70
2019-02-11T15:01:19.464Z,6.70
2019-02-11T15:04:09.122Z,6.70
2019-02-11T15:06:39.179Z,6.70
2019-02-11T15:12:18.085Z,6.70
2019-02-11T15:14:48.435Z,6.70
2019-02-11T15:17:18.359Z,6.80
2019-02-11T15:19:48.595Z,6.90
2019-02-11T15:22:18.749Z,6.90
2019-02-11T15:24:49.041Z,6.80
2019-02-11T15:27:38.409Z,6.80
2019-02-11T15:30:13.100Z,6.70
2019-02-11T15:33:03.005Z,6.80
2019-02-11T15:35:33.147Z,6.70
2019-02-11T15:38:22.790Z,6.70
2019-02-11T15:41:12.209Z,6.60
2019-02-11T15:44:01.933Z,6.70
2019-02-11T15:46:31.882Z,6.60
2019-02-11T15:49:22.196Z,6.60
2019-02-11T15:52:12.251Z,6.50
2019-02-11T15:54:42.679Z,6.50
2019-02-11T15:57:32.594Z,6.40
2019-02-11T16:00:21.821Z,6.40
2019-02-11T16:03:06.337Z,6.40
2019-02-11T16:05:36.433Z,6.40
2019-02-11T16:08:06.482Z,6.30
2019-02-11T16:10:36.573Z,6.30
2019-02-11T16:13:06.851Z,6.30
2019-02-11T16:15:36.899Z,6.20
2019-02-11T16:18:26.605Z,6.20
2019-02-11T16:20:56.749Z,6.10
2019-02-11T16:23:26.906Z,6.20
2019-02-11T16:25:56.823Z,6.10
2019-02-11T16:28:26.861Z,6.20
2019-02-11T16:30:58.885Z,6.10
2019-02-11T16:33:28.814Z,6.10
2019-02-11T16:36:18.491Z,6.00
2019-02-11T16:39:08.120Z,6.00
2019-02-11T16:41:57.859Z,5.90
2019-02-11T16:44:47.168Z,5.90
2019-02-11T16:47:36.779Z,5.90
2019-02-11T16:50:26.210Z,5.80
2019-02-11T16:52:56.350Z,5.90
2019-02-11T16:55:26.348Z,5.90
2019-02-11T16:57:56.423Z,5.90
2019-02-11T17:00:26.444Z,5.80
2019-02-11T17:03:15.836Z,5.80
2019-02-11T17:05:45.874Z,5.80
2019-02-11T17:08:15.893Z,5.80
2019-02-11T17:11:05.570Z,5.70
2019-02-11T17:13:55.130Z,5.80
2019-02-11T17:16:26.090Z,5.70
2019-02-11T17:18:56.010Z,5.70
2019-02-11T17:21:45.661Z,5.60
2019-02-11T17:24:15.882Z,5.70
2019-02-11T17:26:45.916Z,5.60
2019-02-11T17:29:35.305Z,5.70
2019-02-11T17:32:05.486Z,5.70
2019-02-11T17:34:55.294Z,5.70
2019-02-11T17:37:25.401Z,5.70
2019-02-11T17:40:14.839Z,5.80
2019-02-11T17:42:46.230Z,5.80
2019-02-11T17:45:23.530Z,5.80
2019-02-11T17:47:53.618Z,5.80
2019-02-11T17:50:24.675Z,5.70
2019-02-11T17:52:57.013Z,5.70
2019-02-11T17:55:27.020Z,5.70
2019-02-11T17:58:16.802Z,5.70
2019-02-11T18:03:41.898Z,5.70
2019-02-11T18:06:12.174Z,5.60
2019-02-11T18:08:43.771Z,5.60
2019-02-11T18:11:16.244Z,5.50
2019-02-11T18:13:50.700Z,5.50
2019-02-11T18:16:21.296Z,5.50
2019-02-11T18:18:51.549Z,5.50
2019-02-11T18:21:22.030Z,5.50
2019-02-11T18:23:52.165Z,5.50
2019-02-11T18:26:22.363Z,5.40
2019-02-11T18:28:52.648Z,5.50
2019-02-11T18:31:23.855Z,5.50
2019-02-11T18:33:59.141Z,5.60
2019-02-11T18:36:29.304Z,5.60
2019-02-11T18:39:07.260Z,5.60
2019-02-11T18:41:37.370Z,5.50
2019-02-11T18:44:07.971Z,5.60
2019-02-11T18:46:38.150Z,5.50
2019-02-11T18:49:08.352Z,5.50
2019-02-11T18:51:40.809Z,5.60
2019-02-11T18:54:10.969Z,5.60
2019-02-11T18:56:41.428Z,5.60
2019-02-11T18:59:11.582Z,5.60
2019-02-11T19:01:42.686Z,5.60
2019-02-11T19:04:19.715Z,5.60
2019-02-11T19:06:49.840Z,5.60
2019-02-11T19:09:23.163Z,5.60
2019-02-11T19:11:53.493Z,5.60
2019-02-11T19:14:23.619Z,5.60
2019-02-11T19:16:58.055Z,5.60
2019-02-11T19:19:28.411Z,5.70
2019-02-11T19:21:58.626Z,5.60
2019-02-11T19:24:31.255Z,5.70
2019-02-11T19:27:01.275Z,5.70
2019-02-11T19:29:31.507Z,5.70
2019-02-11T19:32:01.879Z,5.70
2019-02-11T19:34:32.048Z,5.70
2019-02-11T19:37:02.075Z,5.70
2019-02-11T19:39:32.070Z,5.70
2019-02-11T19:42:03.506Z,5.60
2019-02-11T19:44:34.475Z,5.60
2019-02-11T19:47:05.744Z,5.70
2019-02-11T19:49:38.690Z,5.70
2019-02-11T19:52:08.755Z,5.70
2019-02-11T19:54:38.856Z,5.70
2019-02-11T19:57:09.783Z,5.70
2019-02-11T19:59:39.849Z,5.70
2019-02-11T20:02:32.120Z,5.70
2019-02-11T20:05:10.163Z,5.70
2019-02-11T20:07:40.673Z,5.70
2019-02-11T20:10:15.340Z,5.70
2019-02-11T20:12:47.375Z,5.70
2019-02-11T20:19:18.596Z,5.70
2019-02-11T20:21:49.084Z,5.70
2019-02-11T20:24:27.341Z,5.60
2019-02-11T20:26:57.490Z,5.60
2019-02-11T20:29:27.800Z,5.60
2019-02-11T20:31:57.909Z,5.60
2019-02-11T20:34:28.034Z,5.60
2019-02-11T20:36:58.513Z,5.40
2019-02-11T20:39:29.117Z,5.40
2019-02-11T20:41:59.496Z,5.30
2019-02-11T20:44:31.280Z,5.20
2019-02-11T20:47:01.778Z,5.20
2019-02-11T20:49:31.978Z,5.10
2019-02-11T20:52:02.159Z,5.00
2019-02-11T20:54:34.850Z,4.90
2019-02-11T20:57:05.314Z,4.80
2019-02-11T21:02:34.832Z,4.80
2019-02-11T21:05:05.712Z,4.70
2019-02-11T21:07:36.149Z,4.70
2019-02-11T21:10:08.155Z,4.70
2019-02-11T21:12:38.482Z,4.70
2019-02-11T21:15:14.922Z,4.60
2019-02-11T21:17:45.879Z,4.60
2019-02-11T21:20:25.917Z,4.60
2019-02-11T21:23:13.213Z,4.60
2019-02-11T21:25:43.680Z,4.60
2019-02-11T21:28:16.890Z,4.60
2019-02-11T21:30:51.014Z,4.60
2019-02-11T21:33:23.297Z,4.60
2019-02-11T21:35:54.377Z,4.60
2019-02-11T21:38:31.910Z,4.70
2019-02-11T21:41:09.174Z,4.60
2019-02-11T21:43:39.514Z,4.60
2019-02-11T21:46:10.200Z,4.60
2019-02-11T21:48:44.891Z,4.60
2019-02-11T21:51:17.322Z,4.50
2019-02-11T21:53:47.996Z,4.50
2019-02-11T21:56:20.340Z,4.50
2019-02-11T22:04:36.634Z,4.40
2019-02-11T22:07:13.131Z,4.40
2019-02-11T22:15:53.534Z,4.30
2019-02-11T22:18:30.131Z,4.30
2019-02-11T22:24:54.102Z,4.20
2019-02-11T22:27:37.406Z,4.10
2019-02-11T22:30:19.229Z,4.10
2019-02-11T22:32:49.564Z,4.10
2019-02-11T22:35:19.852Z,4.10
2019-02-11T22:37:50.117Z,4.10
2019-02-11T22:40:23.049Z,4.00
2019-02-11T22:43:01.736Z,4.00
2019-02-11T22:45:41.314Z,4.00
2019-02-11T22:48:13.414Z,4.00
2019-02-11T22:50:43.503Z,3.90
2019-02-11T22:53:13.624Z,3.90
2019-02-11T22:55:44.219Z,3.90
2019-02-11T22:58:17.925Z,3.80
2019-02-11T23:01:01.713Z,3.80
2019-02-11T23:03:36.662Z,3.80
2019-02-11T23:06:13.647Z,3.80
2019-02-11T23:08:43.754Z,3.70
2019-02-11T23:11:13.902Z,3.70
2019-02-11T23:13:44.265Z,3.70
2019-02-11T23:24:10.627Z,3.70
2019-02-11T23:26:42.140Z,3.60
2019-02-11T23:29:22.791Z,3.60
2019-02-11T23:32:22.721Z,3.60
2019-02-11T23:34:52.897Z,3.60
2019-02-11T23:37:31.162Z,3.50
2019-02-11T23:40:01.060Z,3.50
2019-02-11T23:42:31.148Z,3.40
2019-02-11T23:45:01.173Z,3.40
2019-02-11T23:47:31.144Z,3.40
2019-02-11T23:50:02.571Z,3.30
2019-02-11T23:52:32.966Z,3.40
2019-02-11T23:55:04.633Z,3.30
2019-02-11T23:57:34.503Z,3.30
